sensor_id;sensor_type;location;lat;lon;timestamp;P1;durP1;ratioP1;P2;durP2;ratioP2
66485;SDS011;53303;47.476;8.084;2024-01-27T00:00:04;4.68;;;1.00;;
66485;SDS011;53303;47.476;8.084;2024-01-27T00:02:30;5.90;;;1.30;;
66485;SDS011;53303;47.476;8.084;2024-01-27T00:04:55;5.70;;;1.02;;
66485;SDS011;53303;47.476;8.084;2024-01-27T00:07:21;4.60;;;1.10;;
66485;SDS011;53303;47.476;8.084;2024-01-27T00:09:47;7.35;;;0.90;;
66485;SDS011;53303;47.476;8.084;2024-01-27T00:12:12;3.90;;;1.13;;
66485;SDS011;53303;47.476;8.084;2024-01-27T00:14:38;5.63;;;0.80;;
66485;SDS011;53303;47.476;8.084;2024-01-27T00:17:04;5.00;;;1.05;;
66485;SDS011;53303;47.476;8.084;2024-01-27T00:19:29;6.93;;;1.10;;
66485;SDS011;53303;47.476;8.084;2024-01-27T00:21:55;4.70;;;1.38;;
66485;SDS011;53303;47.476;8.084;2024-01-27T00:24:23;4.30;;;1.13;;
66485;SDS011;53303;47.476;8.084;2024-01-27T00:26:49;5.15;;;1.10;;
66485;SDS011;53303;47.476;8.084;2024-01-27T00:29:17;6.30;;;1.20;;
66485;SDS011;53303;47.476;8.084;2024-01-27T00:31:42;5.88;;;1.20;;
66485;SDS011;53303;47.476;8.084;2024-01-27T00:34:08;3.45;;;1.00;;
66485;SDS011;53303;47.476;8.084;2024-01-27T00:36:33;4.53;;;1.20;;
66485;SDS011;53303;47.476;8.084;2024-01-27T00:39:02;5.55;;;1.00;;
66485;SDS011;53303;47.476;8.084;2024-01-27T00:41:28;6.07;;;1.50;;
66485;SDS011;53303;47.476;8.084;2024-01-27T00:43:53;6.47;;;1.17;;
66485;SDS011;53303;47.476;8.084;2024-01-27T00:46:19;6.68;;;1.05;;
66485;SDS011;53303;47.476;8.084;2024-01-27T00:48:47;6.43;;;1.27;;
66485;SDS011;53303;47.476;8.084;2024-01-27T00:51:12;5.85;;;1.20;;
66485;SDS011;53303;47.476;8.084;2024-01-27T00:53:38;6.80;;;1.45;;
66485;SDS011;53303;47.476;8.084;2024-01-27T00:56:04;7.53;;;1.20;;
66485;SDS011;53303;47.476;8.084;2024-01-27T00:58:32;7.60;;;1.05;;
66485;SDS011;53303;47.476;8.084;2024-01-27T01:00:57;6.45;;;1.00;;
66485;SDS011;53303;47.476;8.084;2024-01-27T01:03:23;5.80;;;1.00;;
66485;SDS011;53303;47.476;8.084;2024-01-27T01:05:51;5.53;;;1.15;;
66485;SDS011;53303;47.476;8.084;2024-01-27T01:08:16;6.55;;;1.20;;
66485;SDS011;53303;47.476;8.084;2024-01-27T01:10:42;5.72;;;0.90;;
66485;SDS011;53303;47.476;8.084;2024-01-27T01:13:07;5.50;;;1.00;;
66485;SDS011;53303;47.476;8.084;2024-01-27T01:15:33;5.95;;;1.63;;
66485;SDS011;53303;47.476;8.084;2024-01-27T01:17:58;4.55;;;1.10;;
66485;SDS011;53303;47.476;8.084;2024-01-27T01:20:23;3.50;;;1.10;;
66485;SDS011;53303;47.476;8.084;2024-01-27T01:22:51;4.90;;;0.90;;
66485;SDS011;53303;47.476;8.084;2024-01-27T01:25:18;4.50;;;1.30;;
66485;SDS011;53303;47.476;8.084;2024-01-27T01:27:46;3.65;;;1.13;;
66485;SDS011;53303;47.476;8.084;2024-01-27T01:30:11;7.78;;;1.20;;
66485;SDS011;53303;47.476;8.084;2024-01-27T01:32:37;6.45;;;1.27;;
66485;SDS011;53303;47.476;8.084;2024-01-27T01:35:03;3.20;;;0.77;;
66485;SDS011;53303;47.476;8.084;2024-01-27T01:37:29;4.72;;;1.10;;
66485;SDS011;53303;47.476;8.084;2024-01-27T01:39:54;5.85;;;1.05;;
66485;SDS011;53303;47.476;8.084;2024-01-27T01:42:19;5.47;;;1.00;;
66485;SDS011;53303;47.476;8.084;2024-01-27T01:44:48;7.70;;;1.15;;
66485;SDS011;53303;47.476;8.084;2024-01-27T01:47:13;4.15;;;0.90;;
66485;SDS011;53303;47.476;8.084;2024-01-27T01:49:41;7.10;;;1.17;;
66485;SDS011;53303;47.476;8.084;2024-01-27T01:52:06;7.13;;;1.08;;
66485;SDS011;53303;47.476;8.084;2024-01-27T01:54:32;9.25;;;1.20;;
66485;SDS011;53303;47.476;8.084;2024-01-27T01:57:00;5.63;;;1.30;;
66485;SDS011;53303;47.476;8.084;2024-01-27T01:59:29;6.00;;;1.17;;
66485;SDS011;53303;47.476;8.084;2024-01-27T02:01:54;8.55;;;1.27;;
66485;SDS011;53303;47.476;8.084;2024-01-27T02:04:19;3.97;;;1.15;;
66485;SDS011;53303;47.476;8.084;2024-01-27T02:06:45;10.85;;;1.27;;
66485;SDS011;53303;47.476;8.084;2024-01-27T02:09:10;6.28;;;0.80;;
66485;SDS011;53303;47.476;8.084;2024-01-27T02:11:36;5.45;;;1.23;;
66485;SDS011;53303;47.476;8.084;2024-01-27T02:14:01;6.63;;;0.93;;
66485;SDS011;53303;47.476;8.084;2024-01-27T02:16:27;6.82;;;0.98;;
66485;SDS011;53303;47.476;8.084;2024-01-27T02:18:52;8.13;;;1.30;;
66485;SDS011;53303;47.476;8.084;2024-01-27T02:21:18;5.10;;;0.90;;
66485;SDS011;53303;47.476;8.084;2024-01-27T02:23:43;11.63;;;1.73;;
66485;SDS011;53303;47.476;8.084;2024-01-27T02:26:09;8.50;;;1.42;;
66485;SDS011;53303;47.476;8.084;2024-01-27T02:28:34;7.40;;;1.65;;
66485;SDS011;53303;47.476;8.084;2024-01-27T02:31:00;6.95;;;1.13;;
66485;SDS011;53303;47.476;8.084;2024-01-27T02:33:26;13.68;;;1.27;;
66485;SDS011;53303;47.476;8.084;2024-01-27T02:35:53;8.57;;;1.10;;
66485;SDS011;53303;47.476;8.084;2024-01-27T02:38:19;7.93;;;1.60;;
66485;SDS011;53303;47.476;8.084;2024-01-27T02:40:44;8.75;;;1.23;;
66485;SDS011;53303;47.476;8.084;2024-01-27T02:43:13;5.28;;;1.00;;
66485;SDS011;53303;47.476;8.084;2024-01-27T02:45:40;8.85;;;1.40;;
66485;SDS011;53303;47.476;8.084;2024-01-27T02:48:06;12.18;;;1.65;;
66485;SDS011;53303;47.476;8.084;2024-01-27T02:50:31;6.88;;;1.15;;
66485;SDS011;53303;47.476;8.084;2024-01-27T02:52:57;7.95;;;1.27;;
66485;SDS011;53303;47.476;8.084;2024-01-27T02:55:24;7.13;;;1.10;;
66485;SDS011;53303;47.476;8.084;2024-01-27T02:57:50;9.65;;;1.83;;
66485;SDS011;53303;47.476;8.084;2024-01-27T03:00:15;6.43;;;1.58;;
66485;SDS011;53303;47.476;8.084;2024-01-27T03:02:45;5.80;;;1.20;;
66485;SDS011;53303;47.476;8.084;2024-01-27T03:05:10;5.68;;;1.20;;
66485;SDS011;53303;47.476;8.084;2024-01-27T03:07:38;4.97;;;1.05;;
66485;SDS011;53303;47.476;8.084;2024-01-27T03:10:04;8.30;;;1.33;;
66485;SDS011;53303;47.476;8.084;2024-01-27T03:12:30;5.78;;;1.05;;
66485;SDS011;53303;47.476;8.084;2024-01-27T03:14:55;9.75;;;1.23;;
66485;SDS011;53303;47.476;8.084;2024-01-27T03:17:23;4.90;;;0.98;;
66485;SDS011;53303;47.476;8.084;2024-01-27T03:19:52;6.40;;;1.10;;
66485;SDS011;53303;47.476;8.084;2024-01-27T03:22:19;7.22;;;1.13;;
66485;SDS011;53303;47.476;8.084;2024-01-27T03:24:45;5.05;;;1.27;;
66485;SDS011;53303;47.476;8.084;2024-01-27T03:27:10;6.63;;;1.13;;
66485;SDS011;53303;47.476;8.084;2024-01-27T03:29:36;6.88;;;1.10;;
66485;SDS011;53303;47.476;8.084;2024-01-27T03:32:01;7.57;;;1.52;;
66485;SDS011;53303;47.476;8.084;2024-01-27T03:34:26;8.27;;;1.17;;
66485;SDS011;53303;47.476;8.084;2024-01-27T03:36:53;8.63;;;1.02;;
66485;SDS011;53303;47.476;8.084;2024-01-27T03:39:18;7.82;;;1.30;;
66485;SDS011;53303;47.476;8.084;2024-01-27T03:41:46;7.65;;;1.08;;
66485;SDS011;53303;47.476;8.084;2024-01-27T03:44:14;6.20;;;1.02;;
66485;SDS011;53303;47.476;8.084;2024-01-27T03:46:39;5.75;;;1.20;;
66485;SDS011;53303;47.476;8.084;2024-01-27T03:49:07;7.20;;;1.15;;
66485;SDS011;53303;47.476;8.084;2024-01-27T03:51:32;5.30;;;1.00;;
66485;SDS011;53303;47.476;8.084;2024-01-27T03:54:00;6.32;;;1.50;;
66485;SDS011;53303;47.476;8.084;2024-01-27T03:56:25;6.20;;;1.35;;
66485;SDS011;53303;47.476;8.084;2024-01-27T03:58:50;5.45;;;1.17;;
66485;SDS011;53303;47.476;8.084;2024-01-27T04:01:16;7.40;;;1.10;;
66485;SDS011;53303;47.476;8.084;2024-01-27T04:03:44;5.43;;;1.40;;
66485;SDS011;53303;47.476;8.084;2024-01-27T04:06:09;11.23;;;1.10;;
66485;SDS011;53303;47.476;8.084;2024-01-27T04:08:40;8.93;;;1.10;;
66485;SDS011;53303;47.476;8.084;2024-01-27T04:11:08;6.80;;;1.10;;
66485;SDS011;53303;47.476;8.084;2024-01-27T04:13:35;7.00;;;1.10;;
66485;SDS011;53303;47.476;8.084;2024-01-27T04:16:01;5.75;;;0.80;;
66485;SDS011;53303;47.476;8.084;2024-01-27T04:18:26;7.82;;;1.55;;
66485;SDS011;53303;47.476;8.084;2024-01-27T04:20:52;4.93;;;1.10;;
66485;SDS011;53303;47.476;8.084;2024-01-27T04:23:17;5.35;;;1.27;;
66485;SDS011;53303;47.476;8.084;2024-01-27T04:25:43;4.28;;;1.23;;
66485;SDS011;53303;47.476;8.084;2024-01-27T04:28:09;5.88;;;1.08;;
66485;SDS011;53303;47.476;8.084;2024-01-27T04:30:36;3.58;;;1.05;;
66485;SDS011;53303;47.476;8.084;2024-01-27T04:33:02;6.88;;;1.10;;
66485;SDS011;53303;47.476;8.084;2024-01-27T04:35:27;7.30;;;1.05;;
66485;SDS011;53303;47.476;8.084;2024-01-27T04:37:53;5.25;;;1.33;;
66485;SDS011;53303;47.476;8.084;2024-01-27T04:40:18;6.72;;;1.13;;
66485;SDS011;53303;47.476;8.084;2024-01-27T04:42:44;8.15;;;1.30;;
66485;SDS011;53303;47.476;8.084;2024-01-27T04:45:09;5.40;;;1.30;;
66485;SDS011;53303;47.476;8.084;2024-01-27T04:47:35;6.55;;;1.10;;
66485;SDS011;53303;47.476;8.084;2024-01-27T04:50:00;6.53;;;1.20;;
66485;SDS011;53303;47.476;8.084;2024-01-27T04:52:30;5.95;;;1.10;;
66485;SDS011;53303;47.476;8.084;2024-01-27T04:54:58;6.28;;;1.15;;
66485;SDS011;53303;47.476;8.084;2024-01-27T04:57:28;6.28;;;1.30;;
66485;SDS011;53303;47.476;8.084;2024-01-27T04:59:54;9.23;;;1.63;;
66485;SDS011;53303;47.476;8.084;2024-01-27T05:02:19;5.32;;;0.93;;
66485;SDS011;53303;47.476;8.084;2024-01-27T05:04:45;6.22;;;1.20;;
66485;SDS011;53303;47.476;8.084;2024-01-27T05:07:10;5.03;;;0.90;;
66485;SDS011;53303;47.476;8.084;2024-01-27T05:09:36;4.65;;;1.00;;
66485;SDS011;53303;47.476;8.084;2024-01-27T05:12:01;7.95;;;1.25;;
66485;SDS011;53303;47.476;8.084;2024-01-27T05:14:27;4.72;;;1.20;;
66485;SDS011;53303;47.476;8.084;2024-01-27T05:16:53;3.50;;;1.10;;
66485;SDS011;53303;47.476;8.084;2024-01-27T05:19:18;6.53;;;1.10;;
66485;SDS011;53303;47.476;8.084;2024-01-27T05:21:43;6.80;;;1.00;;
66485;SDS011;53303;47.476;8.084;2024-01-27T05:24:09;5.22;;;1.23;;
66485;SDS011;53303;47.476;8.084;2024-01-27T05:26:37;5.70;;;1.02;;
66485;SDS011;53303;47.476;8.084;2024-01-27T05:29:02;7.55;;;1.52;;
66485;SDS011;53303;47.476;8.084;2024-01-27T05:31:27;5.70;;;1.05;;
66485;SDS011;53303;47.476;8.084;2024-01-27T05:33:53;7.90;;;1.30;;
66485;SDS011;53303;47.476;8.084;2024-01-27T05:36:18;4.90;;;1.13;;
66485;SDS011;53303;47.476;8.084;2024-01-27T05:38:46;8.60;;;1.33;;
66485;SDS011;53303;47.476;8.084;2024-01-27T05:41:12;7.18;;;1.10;;
66485;SDS011;53303;47.476;8.084;2024-01-27T05:43:37;4.65;;;1.38;;
66485;SDS011;53303;47.476;8.084;2024-01-27T05:46:05;4.70;;;1.15;;
66485;SDS011;53303;47.476;8.084;2024-01-27T05:48:30;7.95;;;1.40;;
66485;SDS011;53303;47.476;8.084;2024-01-27T05:50:59;8.32;;;1.45;;
66485;SDS011;53303;47.476;8.084;2024-01-27T05:53:25;4.53;;;0.93;;
66485;SDS011;53303;47.476;8.084;2024-01-27T05:55:55;7.82;;;1.00;;
66485;SDS011;53303;47.476;8.084;2024-01-27T05:58:20;4.70;;;1.25;;
66485;SDS011;53303;47.476;8.084;2024-01-27T06:00:46;5.57;;;1.35;;
66485;SDS011;53303;47.476;8.084;2024-01-27T06:03:13;3.58;;;1.30;;
66485;SDS011;53303;47.476;8.084;2024-01-27T06:05:39;6.03;;;1.20;;
66485;SDS011;53303;47.476;8.084;2024-01-27T06:08:05;5.07;;;1.17;;
66485;SDS011;53303;47.476;8.084;2024-01-27T06:10:33;5.38;;;1.60;;
66485;SDS011;53303;47.476;8.084;2024-01-27T06:12:58;5.43;;;1.20;;
66485;SDS011;53303;47.476;8.084;2024-01-27T06:15:24;7.07;;;1.20;;
66485;SDS011;53303;47.476;8.084;2024-01-27T06:17:50;6.15;;;1.35;;
66485;SDS011;53303;47.476;8.084;2024-01-27T06:20:15;5.15;;;1.10;;
66485;SDS011;53303;47.476;8.084;2024-01-27T06:22:43;6.80;;;1.05;;
66485;SDS011;53303;47.476;8.084;2024-01-27T06:25:09;5.95;;;1.30;;
66485;SDS011;53303;47.476;8.084;2024-01-27T06:27:35;7.60;;;1.48;;
66485;SDS011;53303;47.476;8.084;2024-01-27T06:30:01;5.00;;;1.02;;
66485;SDS011;53303;47.476;8.084;2024-01-27T06:32:26;7.22;;;1.10;;
66485;SDS011;53303;47.476;8.084;2024-01-27T06:34:52;5.75;;;1.20;;
66485;SDS011;53303;47.476;8.084;2024-01-27T06:37:17;6.55;;;1.33;;
66485;SDS011;53303;47.476;8.084;2024-01-27T06:39:43;5.32;;;1.23;;
66485;SDS011;53303;47.476;8.084;2024-01-27T06:42:08;7.28;;;1.10;;
66485;SDS011;53303;47.476;8.084;2024-01-27T06:44:36;5.93;;;1.30;;
66485;SDS011;53303;47.476;8.084;2024-01-27T06:47:01;5.80;;;1.23;;
66485;SDS011;53303;47.476;8.084;2024-01-27T06:49:29;7.45;;;1.27;;
66485;SDS011;53303;47.476;8.084;2024-01-27T06:51:54;8.73;;;1.17;;
66485;SDS011;53303;47.476;8.084;2024-01-27T06:54:22;6.47;;;1.38;;
66485;SDS011;53303;47.476;8.084;2024-01-27T06:56:47;6.53;;;1.00;;
66485;SDS011;53303;47.476;8.084;2024-01-27T06:59:15;6.63;;;1.52;;
66485;SDS011;53303;47.476;8.084;2024-01-27T07:01:45;7.00;;;1.42;;
66485;SDS011;53303;47.476;8.084;2024-01-27T07:04:14;9.63;;;1.38;;
66485;SDS011;53303;47.476;8.084;2024-01-27T07:06:40;6.22;;;1.50;;
66485;SDS011;53303;47.476;8.084;2024-01-27T07:09:07;9.05;;;1.55;;
66485;SDS011;53303;47.476;8.084;2024-01-27T07:11:34;7.95;;;1.42;;
66485;SDS011;53303;47.476;8.084;2024-01-27T07:14:00;4.63;;;1.33;;
66485;SDS011;53303;47.476;8.084;2024-01-27T07:16:25;7.32;;;1.33;;
66485;SDS011;53303;47.476;8.084;2024-01-27T07:18:50;7.47;;;1.27;;
66485;SDS011;53303;47.476;8.084;2024-01-27T07:21:18;8.68;;;1.52;;
66485;SDS011;53303;47.476;8.084;2024-01-27T07:23:44;7.18;;;1.52;;
66485;SDS011;53303;47.476;8.084;2024-01-27T07:26:10;11.52;;;2.00;;
66485;SDS011;53303;47.476;8.084;2024-01-27T07:28:36;8.18;;;1.75;;
66485;SDS011;53303;47.476;8.084;2024-01-27T07:31:01;10.43;;;1.95;;
66485;SDS011;53303;47.476;8.084;2024-01-27T07:33:27;8.75;;;1.70;;
66485;SDS011;53303;47.476;8.084;2024-01-27T07:35:52;10.18;;;2.25;;
66485;SDS011;53303;47.476;8.084;2024-01-27T07:38:18;11.48;;;2.50;;
66485;SDS011;53303;47.476;8.084;2024-01-27T07:40:43;6.55;;;1.83;;
66485;SDS011;53303;47.476;8.084;2024-01-27T07:43:08;8.32;;;2.70;;
66485;SDS011;53303;47.476;8.084;2024-01-27T07:45:36;7.43;;;2.03;;
66485;SDS011;53303;47.476;8.084;2024-01-27T07:48:04;7.28;;;2.72;;
66485;SDS011;53303;47.476;8.084;2024-01-27T07:50:29;10.65;;;2.28;;
66485;SDS011;53303;47.476;8.084;2024-01-27T07:52:58;9.70;;;2.47;;
66485;SDS011;53303;47.476;8.084;2024-01-27T07:55:24;8.98;;;2.08;;
66485;SDS011;53303;47.476;8.084;2024-01-27T07:57:49;7.80;;;1.70;;
66485;SDS011;53303;47.476;8.084;2024-01-27T08:00:17;11.10;;;2.15;;
66485;SDS011;53303;47.476;8.084;2024-01-27T08:02:43;7.53;;;2.10;;
66485;SDS011;53303;47.476;8.084;2024-01-27T08:05:09;7.30;;;2.00;;
66485;SDS011;53303;47.476;8.084;2024-01-27T08:07:37;8.52;;;2.20;;
66485;SDS011;53303;47.476;8.084;2024-01-27T08:10:05;5.35;;;2.22;;
66485;SDS011;53303;47.476;8.084;2024-01-27T08:12:30;8.10;;;2.60;;
66485;SDS011;53303;47.476;8.084;2024-01-27T08:14:58;7.80;;;2.08;;
66485;SDS011;53303;47.476;8.084;2024-01-27T08:17:26;7.38;;;2.08;;
66485;SDS011;53303;47.476;8.084;2024-01-27T08:19:51;6.05;;;1.98;;
66485;SDS011;53303;47.476;8.084;2024-01-27T08:22:17;6.38;;;1.85;;
66485;SDS011;53303;47.476;8.084;2024-01-27T08:24:42;6.28;;;2.25;;
66485;SDS011;53303;47.476;8.084;2024-01-27T08:27:10;5.90;;;2.05;;
66485;SDS011;53303;47.476;8.084;2024-01-27T08:29:35;8.07;;;1.80;;
66485;SDS011;53303;47.476;8.084;2024-01-27T08:32:01;6.05;;;1.85;;
66485;SDS011;53303;47.476;8.084;2024-01-27T08:34:26;6.85;;;2.10;;
66485;SDS011;53303;47.476;8.084;2024-01-27T08:36:51;8.05;;;2.00;;
66485;SDS011;53303;47.476;8.084;2024-01-27T08:39:17;6.53;;;1.92;;
66485;SDS011;53303;47.476;8.084;2024-01-27T08:41:42;6.55;;;1.90;;
66485;SDS011;53303;47.476;8.084;2024-01-27T08:44:10;6.68;;;1.85;;
66485;SDS011;53303;47.476;8.084;2024-01-27T08:46:36;5.85;;;2.00;;
66485;SDS011;53303;47.476;8.084;2024-01-27T08:49:04;6.90;;;2.50;;
66485;SDS011;53303;47.476;8.084;2024-01-27T08:51:29;5.60;;;1.88;;
66485;SDS011;53303;47.476;8.084;2024-01-27T08:53:55;7.15;;;2.28;;
66485;SDS011;53303;47.476;8.084;2024-01-27T08:56:20;6.70;;;2.13;;
66485;SDS011;53303;47.476;8.084;2024-01-27T08:58:46;4.90;;;1.77;;
66485;SDS011;53303;47.476;8.084;2024-01-27T09:01:17;6.75;;;1.90;;
66485;SDS011;53303;47.476;8.084;2024-01-27T09:03:43;5.40;;;2.05;;
66485;SDS011;53303;47.476;8.084;2024-01-27T09:06:11;5.85;;;2.17;;
66485;SDS011;53303;47.476;8.084;2024-01-27T09:08:37;5.85;;;1.98;;
66485;SDS011;53303;47.476;8.084;2024-01-27T09:11:02;7.00;;;2.30;;
66485;SDS011;53303;47.476;8.084;2024-01-27T09:13:28;4.70;;;1.67;;
66485;SDS011;53303;47.476;8.084;2024-01-27T09:15:54;5.28;;;1.75;;
66485;SDS011;53303;47.476;8.084;2024-01-27T09:18:22;5.32;;;2.05;;
66485;SDS011;53303;47.476;8.084;2024-01-27T09:20:49;4.95;;;2.00;;
66485;SDS011;53303;47.476;8.084;2024-01-27T09:23:15;4.25;;;1.75;;
66485;SDS011;53303;47.476;8.084;2024-01-27T09:25:40;5.63;;;1.95;;
66485;SDS011;53303;47.476;8.084;2024-01-27T09:28:06;6.30;;;1.73;;
66485;SDS011;53303;47.476;8.084;2024-01-27T09:30:31;7.22;;;2.10;;
66485;SDS011;53303;47.476;8.084;2024-01-27T09:32:57;4.45;;;1.70;;
66485;SDS011;53303;47.476;8.084;2024-01-27T09:35:24;4.88;;;1.58;;
66485;SDS011;53303;47.476;8.084;2024-01-27T09:37:50;4.53;;;1.75;;
66485;SDS011;53303;47.476;8.084;2024-01-27T09:40:15;3.75;;;1.45;;
66485;SDS011;53303;47.476;8.084;2024-01-27T09:42:41;6.38;;;1.67;;
66485;SDS011;53303;47.476;8.084;2024-01-27T09:45:25;4.20;;;1.58;;
66485;SDS011;53303;47.476;8.084;2024-01-27T09:47:53;5.10;;;1.60;;
66485;SDS011;53303;47.476;8.084;2024-01-27T09:50:22;5.18;;;1.77;;
66485;SDS011;53303;47.476;8.084;2024-01-27T09:52:48;6.40;;;1.60;;
66485;SDS011;53303;47.476;8.084;2024-01-27T09:55:14;4.35;;;1.70;;
66485;SDS011;53303;47.476;8.084;2024-01-27T09:57:39;5.13;;;1.60;;
66485;SDS011;53303;47.476;8.084;2024-01-27T10:00:09;7.10;;;2.03;;
66485;SDS011;53303;47.476;8.084;2024-01-27T10:02:41;5.30;;;1.90;;
66485;SDS011;53303;47.476;8.084;2024-01-27T10:05:08;4.60;;;1.73;;
66485;SDS011;53303;47.476;8.084;2024-01-27T10:07:34;5.68;;;1.60;;
66485;SDS011;53303;47.476;8.084;2024-01-27T10:09:59;6.20;;;1.95;;
66485;SDS011;53303;47.476;8.084;2024-01-27T10:12:24;6.47;;;1.60;;
66485;SDS011;53303;47.476;8.084;2024-01-27T10:14:51;3.85;;;1.50;;
66485;SDS011;53303;47.476;8.084;2024-01-27T10:17:22;4.50;;;1.75;;
66485;SDS011;53303;47.476;8.084;2024-01-27T10:19:59;5.07;;;1.50;;
66485;SDS011;53303;47.476;8.084;2024-01-27T10:22:28;5.15;;;1.95;;
66485;SDS011;53303;47.476;8.084;2024-01-27T10:25:04;5.00;;;1.67;;
66485;SDS011;53303;47.476;8.084;2024-01-27T10:27:30;7.05;;;1.70;;
66485;SDS011;53303;47.476;8.084;2024-01-27T10:29:58;3.35;;;1.42;;
66485;SDS011;53303;47.476;8.084;2024-01-27T10:32:24;4.38;;;1.60;;
66485;SDS011;53303;47.476;8.084;2024-01-27T10:37:28;3.55;;;1.35;;
66485;SDS011;53303;47.476;8.084;2024-01-27T10:39:59;5.28;;;1.60;;
66485;SDS011;53303;47.476;8.084;2024-01-27T10:42:35;5.18;;;1.65;;
66485;SDS011;53303;47.476;8.084;2024-01-27T10:45:03;4.88;;;1.70;;
66485;SDS011;53303;47.476;8.084;2024-01-27T10:47:30;4.13;;;1.73;;
66485;SDS011;53303;47.476;8.084;2024-01-27T10:49:58;3.28;;;1.38;;
66485;SDS011;53303;47.476;8.084;2024-01-27T10:52:25;3.35;;;1.70;;
66485;SDS011;53303;47.476;8.084;2024-01-27T10:55:01;4.82;;;1.75;;
66485;SDS011;53303;47.476;8.084;2024-01-27T10:57:35;4.10;;;1.23;;
66485;SDS011;53303;47.476;8.084;2024-01-27T11:00:02;5.72;;;1.60;;
66485;SDS011;53303;47.476;8.084;2024-01-27T11:02:34;3.45;;;1.17;;
66485;SDS011;53303;47.476;8.084;2024-01-27T11:05:02;5.07;;;1.70;;
66485;SDS011;53303;47.476;8.084;2024-01-27T11:07:30;4.85;;;1.50;;
66485;SDS011;53303;47.476;8.084;2024-01-27T11:09:58;3.95;;;1.23;;
66485;SDS011;53303;47.476;8.084;2024-01-27T11:12:25;4.30;;;1.52;;
66485;SDS011;53303;47.476;8.084;2024-01-27T11:14:51;4.82;;;1.73;;
66485;SDS011;53303;47.476;8.084;2024-01-27T11:17:18;4.07;;;1.60;;
66485;SDS011;53303;47.476;8.084;2024-01-27T11:19:44;5.20;;;1.40;;
66485;SDS011;53303;47.476;8.084;2024-01-27T11:22:23;3.20;;;1.15;;
66485;SDS011;53303;47.476;8.084;2024-01-27T11:24:53;7.97;;;1.85;;
66485;SDS011;53303;47.476;8.084;2024-01-27T11:27:32;4.57;;;1.58;;
66485;SDS011;53303;47.476;8.084;2024-01-27T11:30:00;4.43;;;1.30;;
66485;SDS011;53303;47.476;8.084;2024-01-27T11:32:26;5.07;;;1.45;;
66485;SDS011;53303;47.476;8.084;2024-01-27T11:34:51;7.47;;;1.50;;
66485;SDS011;53303;47.476;8.084;2024-01-27T11:37:20;4.47;;;1.50;;
66485;SDS011;53303;47.476;8.084;2024-01-27T11:39:49;5.15;;;1.42;;
66485;SDS011;53303;47.476;8.084;2024-01-27T11:42:16;4.60;;;1.40;;
66485;SDS011;53303;47.476;8.084;2024-01-27T11:44:42;7.20;;;1.58;;
66485;SDS011;53303;47.476;8.084;2024-01-27T11:47:17;5.72;;;1.60;;
66485;SDS011;53303;47.476;8.084;2024-01-27T11:49:48;5.82;;;1.50;;
66485;SDS011;53303;47.476;8.084;2024-01-27T11:52:17;5.47;;;1.60;;
66485;SDS011;53303;47.476;8.084;2024-01-27T11:54:43;4.30;;;1.48;;
66485;SDS011;53303;47.476;8.084;2024-01-27T11:57:11;9.45;;;1.48;;
66485;SDS011;53303;47.476;8.084;2024-01-27T11:59:39;5.55;;;1.30;;
66485;SDS011;53303;47.476;8.084;2024-01-27T12:02:04;7.28;;;1.50;;
66485;SDS011;53303;47.476;8.084;2024-01-27T12:04:30;5.10;;;1.13;;
66485;SDS011;53303;47.476;8.084;2024-01-27T12:06:56;3.20;;;1.33;;
66485;SDS011;53303;47.476;8.084;2024-01-27T12:09:24;4.18;;;1.20;;
66485;SDS011;53303;47.476;8.084;2024-01-27T12:11:49;6.60;;;1.70;;
66485;SDS011;53303;47.476;8.084;2024-01-27T12:14:16;5.30;;;1.50;;
66485;SDS011;53303;47.476;8.084;2024-01-27T12:16:42;5.07;;;1.10;;
66485;SDS011;53303;47.476;8.084;2024-01-27T12:19:09;3.97;;;1.10;;
66485;SDS011;53303;47.476;8.084;2024-01-27T12:21:35;8.88;;;1.20;;
66485;SDS011;53303;47.476;8.084;2024-01-27T12:24:01;5.72;;;1.52;;
66485;SDS011;53303;47.476;8.084;2024-01-27T12:26:28;4.13;;;1.30;;
66485;SDS011;53303;47.476;8.084;2024-01-27T12:28:54;4.28;;;1.25;;
66485;SDS011;53303;47.476;8.084;2024-01-27T12:31:23;5.85;;;1.60;;
66485;SDS011;53303;47.476;8.084;2024-01-27T12:33:52;5.55;;;1.30;;
66485;SDS011;53303;47.476;8.084;2024-01-27T12:36:24;6.13;;;1.33;;
66485;SDS011;53303;47.476;8.084;2024-01-27T12:38:59;8.93;;;1.20;;
66485;SDS011;53303;47.476;8.084;2024-01-27T12:41:26;4.20;;;1.45;;
66485;SDS011;53303;47.476;8.084;2024-01-27T12:43:53;5.93;;;1.45;;
66485;SDS011;53303;47.476;8.084;2024-01-27T12:46:19;5.80;;;1.55;;
66485;SDS011;53303;47.476;8.084;2024-01-27T12:48:44;4.20;;;1.40;;
66485;SDS011;53303;47.476;8.084;2024-01-27T12:51:12;5.78;;;1.10;;
66485;SDS011;53303;47.476;8.084;2024-01-27T12:53:39;6.20;;;1.50;;
66485;SDS011;53303;47.476;8.084;2024-01-27T12:56:10;3.97;;;1.17;;
66485;SDS011;53303;47.476;8.084;2024-01-27T12:58:37;4.35;;;1.20;;
66485;SDS011;53303;47.476;8.084;2024-01-27T13:01:03;4.85;;;1.00;;
66485;SDS011;53303;47.476;8.084;2024-01-27T13:03:28;5.75;;;1.30;;
66485;SDS011;53303;47.476;8.084;2024-01-27T13:05:54;5.00;;;1.20;;
66485;SDS011;53303;47.476;8.084;2024-01-27T13:08:21;3.88;;;1.52;;
66485;SDS011;53303;47.476;8.084;2024-01-27T13:10:47;2.95;;;1.15;;
66485;SDS011;53303;47.476;8.084;2024-01-27T13:13:12;6.40;;;1.48;;
66485;SDS011;53303;47.476;8.084;2024-01-27T13:15:38;6.65;;;1.50;;
66485;SDS011;53303;47.476;8.084;2024-01-27T13:18:03;7.40;;;1.50;;
66485;SDS011;53303;47.476;8.084;2024-01-27T13:20:29;5.63;;;1.35;;
66485;SDS011;53303;47.476;8.084;2024-01-27T13:22:54;4.65;;;1.58;;
66485;SDS011;53303;47.476;8.084;2024-01-27T13:25:20;6.95;;;1.60;;
66485;SDS011;53303;47.476;8.084;2024-01-27T13:27:45;4.53;;;1.33;;
66485;SDS011;53303;47.476;8.084;2024-01-27T13:30:11;6.32;;;1.40;;
66485;SDS011;53303;47.476;8.084;2024-01-27T13:32:38;3.58;;;1.00;;
66485;SDS011;53303;47.476;8.084;2024-01-27T13:35:04;4.97;;;1.20;;
66485;SDS011;53303;47.476;8.084;2024-01-27T13:37:30;4.80;;;1.45;;
66485;SDS011;53303;47.476;8.084;2024-01-27T13:39:59;3.65;;;1.45;;
66485;SDS011;53303;47.476;8.084;2024-01-27T13:42:25;5.63;;;1.65;;
66485;SDS011;53303;47.476;8.084;2024-01-27T13:44:50;4.80;;;1.48;;
66485;SDS011;53303;47.476;8.084;2024-01-27T13:47:16;6.53;;;1.45;;
66485;SDS011;53303;47.476;8.084;2024-01-27T13:49:41;3.13;;;1.20;;
66485;SDS011;53303;47.476;8.084;2024-01-27T13:52:09;4.53;;;1.33;;
66485;SDS011;53303;47.476;8.084;2024-01-27T13:54:36;5.15;;;1.20;;
66485;SDS011;53303;47.476;8.084;2024-01-27T13:57:02;2.92;;;1.35;;
66485;SDS011;53303;47.476;8.084;2024-01-27T13:59:27;3.38;;;1.33;;
66485;SDS011;53303;47.476;8.084;2024-01-27T14:01:56;5.40;;;1.23;;
66485;SDS011;53303;47.476;8.084;2024-01-27T14:04:22;3.30;;;1.08;;
66485;SDS011;53303;47.476;8.084;2024-01-27T14:06:51;3.17;;;1.00;;
66485;SDS011;53303;47.476;8.084;2024-01-27T14:09:18;3.33;;;1.10;;
66485;SDS011;53303;47.476;8.084;2024-01-27T14:11:44;4.32;;;1.00;;
66485;SDS011;53303;47.476;8.084;2024-01-27T14:14:10;5.90;;;1.23;;
66485;SDS011;53303;47.476;8.084;2024-01-27T14:16:35;5.32;;;1.15;;
66485;SDS011;53303;47.476;8.084;2024-01-27T14:19:03;3.08;;;1.02;;
66485;SDS011;53303;47.476;8.084;2024-01-27T14:21:28;3.53;;;1.15;;
66485;SDS011;53303;47.476;8.084;2024-01-27T14:23:53;4.55;;;1.30;;
66485;SDS011;53303;47.476;8.084;2024-01-27T14:26:27;4.50;;;1.10;;
66485;SDS011;53303;47.476;8.084;2024-01-27T14:28:53;3.78;;;1.25;;
66485;SDS011;53303;47.476;8.084;2024-01-27T14:31:20;4.00;;;1.20;;
66485;SDS011;53303;47.476;8.084;2024-01-27T14:33:45;5.38;;;1.30;;
66485;SDS011;53303;47.476;8.084;2024-01-27T14:36:11;5.97;;;1.23;;
66485;SDS011;53303;47.476;8.084;2024-01-27T14:38:36;4.18;;;1.02;;
66485;SDS011;53303;47.476;8.084;2024-01-27T14:41:05;5.20;;;1.30;;
66485;SDS011;53303;47.476;8.084;2024-01-27T14:43:36;5.88;;;1.25;;
66485;SDS011;53303;47.476;8.084;2024-01-27T14:46:03;6.25;;;1.63;;